sensor_id;sensor_type;location;lat;lon;timestamp;pressure;altitude;pressure_sealevel;temperature;humidity
47556;BME280;33291;46.222;26.460;2024-03-22T00:01:54;96812.34;;;3.52;100.00
47556;BME280;33291;46.222;26.460;2024-03-22T00:04:20;96810.50;;;3.54;100.00
47556;BME280;33291;46.222;26.460;2024-03-22T00:06:47;96813.88;;;3.55;100.00
47556;BME280;33291;46.222;26.460;2024-03-22T00:09:14;96811.22;;;3.56;100.00
47556;BME280;33291;46.222;26.460;2024-03-22T00:11:41;96805.34;;;3.54;100.00
47556;BME280;33291;46.222;26.460;2024-03-22T00:14:07;96812.91;;;3.58;100.00
47556;BME280;33291;46.222;26.460;2024-03-22T00:16:33;96810.22;;;3.59;100.00
47556;BME280;33291;46.222;26.460;2024-03-22T00:18:59;96806.00;;;3.58;100.00
47556;BME280;33291;46.222;26.460;2024-03-22T00:21:25;96802.59;;;3.58;100.00
47556;BME280;33291;46.222;26.460;2024-03-22T00:23:50;96808.75;;;3.55;100.00
47556;BME280;33291;46.222;26.460;2024-03-22T00:26:16;96809.50;;;3.57;100.00
47556;BME280;33291;46.222;26.460;2024-03-22T00:28:42;96800.09;;;3.56;100.00
47556;BME280;33291;46.222;26.460;2024-03-22T00:31:08;96788.66;;;3.46;100.00
47556;BME280;33291;46.222;26.460;2024-03-22T00:33:34;96802.78;;;3.54;100.00
47556;BME280;33291;46.222;26.460;2024-03-22T00:36:00;96798.53;;;3.53;100.00
47556;BME280;33291;46.222;26.460;2024-03-22T00:38:26;96797.72;;;3.53;100.00
47556;BME280;33291;46.222;26.460;2024-03-22T00:40:52;96803.75;;;3.52;100.00
47556;BME280;33291;46.222;26.460;2024-03-22T00:43:17;96796.03;;;3.52;100.00
47556;BME280;33291;46.222;26.460;2024-03-22T00:45:43;96801.09;;;3.53;100.00
47556;BME280;33291;46.222;26.460;2024-03-22T00:48:09;96786.75;;;3.49;100.00
47556;BME280;33291;46.222;26.460;2024-03-22T00:50:34;96795.13;;;3.53;100.00
47556;BME280;33291;46.222;26.460;2024-03-22T00:53:00;96798.63;;;3.52;100.00
47556;BME280;33291;46.222;26.460;2024-03-22T00:55:28;96797.63;;;3.54;100.00
47556;BME280;33291;46.222;26.460;2024-03-22T00:57:54;96790.16;;;3.50;100.00
47556;BME280;33291;46.222;26.460;2024-03-22T01:00:20;96785.66;;;3.53;100.00
47556;BME280;33291;46.222;26.460;2024-03-22T01:02:46;96788.13;;;3.55;100.00
47556;BME280;33291;46.222;26.460;2024-03-22T01:05:11;96791.56;;;3.55;100.00
47556;BME280;33291;46.222;26.460;2024-03-22T01:07:37;96769.09;;;3.43;100.00
47556;BME280;33291;46.222;26.460;2024-03-22T01:10:04;96785.56;;;3.55;100.00
47556;BME280;33291;46.222;26.460;2024-03-22T01:12:30;96785.66;;;3.53;100.00
47556;BME280;33291;46.222;26.460;2024-03-22T01:14:56;96792.47;;;3.54;100.00
47556;BME280;33291;46.222;26.460;2024-03-22T01:17:22;96787.41;;;3.53;100.00
47556;BME280;33291;46.222;26.460;2024-03-22T01:19:48;96785.72;;;3.52;100.00
47556;BME280;33291;46.222;26.460;2024-03-22T01:22:14;96776.38;;;3.51;100.00
47556;BME280;33291;46.222;26.460;2024-03-22T01:24:39;96770.38;;;3.50;100.00
47556;BME280;33291;46.222;26.460;2024-03-22T01:27:05;96764.22;;;3.53;100.00
47556;BME280;33291;46.222;26.460;2024-03-22T01:29:31;96759.88;;;3.53;100.00
47556;BME280;33291;46.222;26.460;2024-03-22T01:31:59;96755.50;;;3.55;100.00
47556;BME280;33291;46.222;26.460;2024-03-22T01:34:25;96748.22;;;3.48;100.00
47556;BME280;33291;46.222;26.460;2024-03-22T01:36:51;96760.75;;;3.54;100.00
47556;BME280;33291;46.222;26.460;2024-03-22T01:39:19;96760.91;;;3.51;100.00
47556;BME280;33291;46.222;26.460;2024-03-22T01:41:47;96760.66;;;3.55;100.00
47556;BME280;33291;46.222;26.460;2024-03-22T01:44:13;96763.22;;;3.55;100.00
47556;BME280;33291;46.222;26.460;2024-03-22T01:46:40;96755.69;;;3.52;100.00
47556;BME280;33291;46.222;26.460;2024-03-22T01:49:07;96760.75;;;3.54;100.00
47556;BME280;33291;46.222;26.460;2024-03-22T01:51:33;96758.88;;;3.56;100.00
47556;BME280;33291;46.222;26.460;2024-03-22T01:54:01;96751.69;;;3.47;100.00
47556;BME280;33291;46.222;26.460;2024-03-22T01:56:27;96752.44;;;3.49;100.00
47556;BME280;33291;46.222;26.460;2024-03-22T01:58:54;96759.25;;;3.50;100.00
47556;BME280;33291;46.222;26.460;2024-03-22T02:01:20;96751.69;;;3.47;100.00
47556;BME280;33291;46.222;26.460;2024-03-22T02:03:46;96760.81;;;3.52;100.00
47556;BME280;33291;46.222;26.460;2024-03-22T02:06:11;96760.81;;;3.52;100.00
47556;BME280;33291;46.222;26.460;2024-03-22T02:08:37;96746.47;;;3.48;100.00
47556;BME280;33291;46.222;26.460;2024-03-22T02:11:05;96758.16;;;3.54;100.00
47556;BME280;33291;46.222;26.460;2024-03-22T02:13:31;96762.56;;;3.52;100.00
47556;BME280;33291;46.222;26.460;2024-03-22T02:15:57;96766.72;;;3.54;100.00
47556;BME280;33291;46.222;26.460;2024-03-22T02:18:23;96759.81;;;3.55;100.00
47556;BME280;33291;46.222;26.460;2024-03-22T02:20:48;96761.47;;;3.56;100.00
47556;BME280;33291;46.222;26.460;2024-03-22T02:23:14;96756.59;;;3.51;100.00
47556;BME280;33291;46.222;26.460;2024-03-22T02:25:39;96762.19;;;3.58;100.00
47556;BME280;33291;46.222;26.460;2024-03-22T02:28:05;96754.56;;;3.56;100.00
47556;BME280;33291;46.222;26.460;2024-03-22T02:30:31;96750.53;;;3.52;100.00
47556;BME280;33291;46.222;26.460;2024-03-22T02:32:56;96753.84;;;3.54;100.00
47556;BME280;33291;46.222;26.460;2024-03-22T02:35:22;96748.78;;;3.53;100.00
47556;BME280;33291;46.222;26.460;2024-03-22T02:37:47;96749.69;;;3.52;100.00
47556;BME280;33291;46.222;26.460;2024-03-22T02:40:13;96748.94;;;3.50;100.00
47556;BME280;33291;46.222;26.460;2024-03-22T02:42:39;96747.28;;;3.49;100.00
47556;BME280;33291;46.222;26.460;2024-03-22T02:45:04;96750.44;;;3.54;100.00
47556;BME280;33291;46.222;26.460;2024-03-22T02:47:30;96752.94;;;3.55;100.00
47556;BME280;33291;46.222;26.460;2024-03-22T02:49:56;96747.38;;;3.47;100.00
47556;BME280;33291;46.222;26.460;2024-03-22T02:52:21;96753.28;;;3.49;100.00
47556;BME280;33291;46.222;26.460;2024-03-22T02:54:47;96746.00;;;3.42;100.00
47556;BME280;33291;46.222;26.460;2024-03-22T02:57:12;96755.94;;;3.48;100.00
47556;BME280;33291;46.222;26.460;2024-03-22T02:59:38;96755.94;;;3.48;100.00
47556;BME280;33291;46.222;26.460;2024-03-22T03:02:04;96756.75;;;3.48;100.00
47556;BME280;33291;46.222;26.460;2024-03-22T03:04:29;96750.78;;;3.48;100.00
47556;BME280;33291;46.222;26.460;2024-03-22T03:06:55;96752.44;;;3.49;100.00
47556;BME280;33291;46.222;26.460;2024-03-22T03:09:21;96745.66;;;3.48;100.00
47556;BME280;33291;46.222;26.460;2024-03-22T03:11:46;96745.66;;;3.48;100.00
47556;BME280;33291;46.222;26.460;2024-03-22T03:14:12;96748.94;;;3.50;100.00
47556;BME280;33291;46.222;26.460;2024-03-22T03:16:38;96748.94;;;3.50;100.00
47556;BME280;33291;46.222;26.460;2024-03-22T03:19:03;96740.41;;;3.49;100.00
47556;BME280;33291;46.222;26.460;2024-03-22T03:21:29;96740.50;;;3.48;100.00
47556;BME280;33291;46.222;26.460;2024-03-22T03:23:54;96745.47;;;3.51;100.00
47556;BME280;33291;46.222;26.460;2024-03-22T03:26:20;96727.78;;;3.45;100.00
47556;BME280;33291;46.222;26.460;2024-03-22T03:28:45;96738.91;;;3.45;100.00
47556;BME280;33291;46.222;26.460;2024-03-22T03:31:11;96738.19;;;3.43;100.00
47556;BME280;33291;46.222;26.460;2024-03-22T03:33:37;96735.53;;;3.45;100.00
47556;BME280;33291;46.222;26.460;2024-03-22T03:36:03;96735.34;;;3.48;100.00
47556;BME280;33291;46.222;26.460;2024-03-22T03:38:28;96732.84;;;3.46;100.00
47556;BME280;33291;46.222;26.460;2024-03-22T03:40:54;96731.91;;;3.47;100.00
47556;BME280;33291;46.222;26.460;2024-03-22T03:43:19;96737.06;;;3.47;100.00
47556;BME280;33291;46.222;26.460;2024-03-22T03:45:45;96731.19;;;3.45;100.00
47556;BME280;33291;46.222;26.460;2024-03-22T03:48:11;96739.09;;;3.42;100.00
47556;BME280;33291;46.222;26.460;2024-03-22T03:50:36;96739.00;;;3.44;100.00
47556;BME280;33291;46.222;26.460;2024-03-22T03:53:02;96740.84;;;3.42;100.00
47556;BME280;33291;46.222;26.460;2024-03-22T03:55:27;96737.50;;;3.40;100.00
47556;BME280;33291;46.222;26.460;2024-03-22T03:57:53;96743.66;;;3.37;100.00
47556;BME280;33291;46.222;26.460;2024-03-22T04:00:19;96741.16;;;3.35;100.00
47556;BME280;33291;46.222;26.460;2024-03-22T04:02:45;96747.53;;;3.30;100.00
47556;BME280;33291;46.222;26.460;2024-03-22T04:05:11;96758.72;;;3.29;100.00
47556;BME280;33291;46.222;26.460;2024-03-22T04:07:37;96748.69;;;3.24;100.00
47556;BME280;33291;46.222;26.460;2024-03-22T04:10:05;96720.75;;;3.02;100.00
47556;BME280;33291;46.222;26.460;2024-03-22T04:12:31;96742.22;;;3.17;100.00
47556;BME280;33291;46.222;26.460;2024-03-22T04:14:56;96750.53;;;3.22;100.00
47556;BME280;33291;46.222;26.460;2024-03-22T04:17:22;96760.66;;;3.25;100.00
47556;BME280;33291;46.222;26.460;2024-03-22T04:19:49;96762.28;;;3.26;100.00
47556;BME280;33291;46.222;26.460;2024-03-22T04:22:15;96759.81;;;3.25;100.00
47556;BME280;33291;46.222;26.460;2024-03-22T04:24:40;96759.81;;;3.25;100.00
47556;BME280;33291;46.222;26.460;2024-03-22T04:27:06;96753.28;;;3.19;100.00
47556;BME280;33291;46.222;26.460;2024-03-22T04:29:32;96761.75;;;3.21;100.00
47556;BME280;33291;46.222;26.460;2024-03-22T04:31:58;96771.13;;;3.22;100.00
47556;BME280;33291;46.222;26.460;2024-03-22T04:34:23;96767.06;;;3.18;100.00
47556;BME280;33291;46.222;26.460;2024-03-22T04:36:50;96764.59;;;3.16;100.00
47556;BME280;33291;46.222;26.460;2024-03-22T04:39:19;96769.81;;;3.15;100.00
47556;BME280;33291;46.222;26.460;2024-03-22T04:41:44;96759.78;;;3.10;100.00
47556;BME280;33291;46.222;26.460;2024-03-22T04:44:10;96774.06;;;3.16;100.00
47556;BME280;33291;46.222;26.460;2024-03-22T04:46:35;96767.31;;;3.13;100.00
47556;BME280;33291;46.222;26.460;2024-03-22T04:49:01;96771.56;;;3.14;100.00
47556;BME280;33291;46.222;26.460;2024-03-22T04:51:27;96768.22;;;3.12;100.00
47556;BME280;33291;46.222;26.460;2024-03-22T04:53:52;96768.22;;;3.12;100.00
47556;BME280;33291;46.222;26.460;2024-03-22T04:56:18;96770.00;;;3.12;100.00
47556;BME280;33291;46.222;26.460;2024-03-22T04:58:43;96774.31;;;3.11;100.00
47556;BME280;33291;46.222;26.460;2024-03-22T05:01:09;96774.31;;;3.11;100.00
47556;BME280;33291;46.222;26.460;2024-03-22T05:03:36;96770.00;;;3.12;100.00
47556;BME280;33291;46.222;26.460;2024-03-22T05:06:02;96774.31;;;3.11;100.00
47556;BME280;33291;46.222;26.460;2024-03-22T05:08:28;96774.16;;;3.14;100.00
47556;BME280;33291;46.222;26.460;2024-03-22T05:10:54;96766.41;;;3.14;100.00
47556;BME280;33291;46.222;26.460;2024-03-22T05:13:20;96773.13;;;3.17;100.00
47556;BME280;33291;46.222;26.460;2024-03-22T05:15:46;96768.16;;;3.14;100.00
47556;BME280;33291;46.222;26.460;2024-03-22T05:18:12;96774.44;;;3.24;100.00
47556;BME280;33291;46.222;26.460;2024-03-22T05:20:37;96782.72;;;3.29;100.00
47556;BME280;33291;46.222;26.460;2024-03-22T05:23:03;96775.75;;;3.31;100.00
47556;BME280;33291;46.222;26.460;2024-03-22T05:25:29;96775.50;;;3.36;100.00
47556;BME280;33291;46.222;26.460;2024-03-22T05:27:54;96767.69;;;3.37;100.00
47556;BME280;33291;46.222;26.460;2024-03-22T05:30:20;96768.41;;;3.40;100.00
47556;BME280;33291;46.222;26.460;2024-03-22T05:32:47;96763.94;;;3.43;100.00
47556;BME280;33291;46.222;26.460;2024-03-22T05:35:15;96764.56;;;3.47;100.00
47556;BME280;33291;46.222;26.460;2024-03-22T05:37:41;96766.72;;;3.54;100.00
47556;BME280;33291;46.222;26.460;2024-03-22T05:40:07;96753.56;;;3.59;100.00
47556;BME280;33291;46.222;26.460;2024-03-22T05:42:34;96758.53;;;3.62;100.00
47556;BME280;33291;46.222;26.460;2024-03-22T05:44:59;96758.34;;;3.65;100.00
47556;BME280;33291;46.222;26.460;2024-03-22T05:47:25;96765.00;;;3.69;100.00
47556;BME280;33291;46.222;26.460;2024-03-22T05:49:51;96756.50;;;3.67;100.00
47556;BME280;33291;46.222;26.460;2024-03-22T05:52:17;96759.66;;;3.72;100.00
47556;BME280;33291;46.222;26.460;2024-03-22T05:54:43;96761.88;;;3.79;100.00
47556;BME280;33291;46.222;26.460;2024-03-22T05:57:09;96761.50;;;3.85;100.00
47556;BME280;33291;46.222;26.460;2024-03-22T05:59:35;96760.25;;;3.92;100.00
47556;BME280;33291;46.222;26.460;2024-03-22T06:02:01;96751.56;;;3.93;100.00
47556;BME280;33291;46.222;26.460;2024-03-22T06:04:27;96760.88;;;3.96;100.00
47556;BME280;33291;46.222;26.460;2024-03-22T06:06:53;96762.53;;;3.97;100.00
47556;BME280;33291;46.222;26.460;2024-03-22T06:09:18;96760.03;;;4.09;100.00
47556;BME280;33291;46.222;26.460;2024-03-22T06:11:52;96769.06;;;4.17;100.00
47556;BME280;33291;46.222;26.460;2024-03-22T06:14:18;96763.63;;;4.21;100.00
47556;BME280;33291;46.222;26.460;2024-03-22T06:16:44;96762.59;;;4.38;100.00
47556;BME280;33291;46.222;26.460;2024-03-22T06:19:09;96760.41;;;4.47;100.00
47556;BME280;33291;46.222;26.460;2024-03-22T06:21:35;96757.34;;;4.54;100.00
47556;BME280;33291;46.222;26.460;2024-03-22T06:24:01;96751.81;;;4.60;100.00
47556;BME280;33291;46.222;26.460;2024-03-22T06:26:26;96757.09;;;4.72;100.00
47556;BME280;33291;46.222;26.460;2024-03-22T06:28:52;96755.91;;;4.77;100.00
47556;BME280;33291;46.222;26.460;2024-03-22T06:31:18;96757.09;;;4.86;100.00
47556;BME280;33291;46.222;26.460;2024-03-22T06:33:43;96762.47;;;4.96;100.00
47556;BME280;33291;46.222;26.460;2024-03-22T06:36:09;96755.09;;;5.04;100.00
47556;BME280;33291;46.222;26.460;2024-03-22T06:38:34;96764.06;;;5.11;99.46
47556;BME280;33291;46.222;26.460;2024-03-22T06:41:00;96759.34;;;5.18;97.37
47556;BME280;33291;46.222;26.460;2024-03-22T06:43:26;96755.16;;;5.30;97.57
47556;BME280;33291;46.222;26.460;2024-03-22T06:45:51;96756.09;;;5.42;98.67
47556;BME280;33291;46.222;26.460;2024-03-22T06:48:17;96749.00;;;5.45;97.97
47556;BME280;33291;46.222;26.460;2024-03-22T06:50:43;96763.47;;;5.61;93.96
47556;BME280;33291;46.222;26.460;2024-03-22T06:53:09;96756.34;;;5.64;92.63
47556;BME280;33291;46.222;26.460;2024-03-22T06:55:37;96757.09;;;5.66;93.24
47556;BME280;33291;46.222;26.460;2024-03-22T06:58:03;96761.44;;;5.79;93.36
47556;BME280;33291;46.222;26.460;2024-03-22T07:00:29;96761.84;;;5.85;93.58
47556;BME280;33291;46.222;26.460;2024-03-22T07:02:54;96763.63;;;5.98;94.37
47556;BME280;33291;46.222;26.460;2024-03-22T07:05:25;96761.88;;;6.11;94.41
47556;BME280;33291;46.222;26.460;2024-03-22T07:07:51;96751.41;;;6.26;95.46
47556;BME280;33291;46.222;26.460;2024-03-22T07:10:18;96756.66;;;6.37;92.72
47556;BME280;33291;46.222;26.460;2024-03-22T07:12:44;96753.53;;;6.45;90.00
47556;BME280;33291;46.222;26.460;2024-03-22T07:15:10;96756.09;;;6.57;91.08
47556;BME280;33291;46.222;26.460;2024-03-22T07:17:35;96754.41;;;6.69;89.55
47556;BME280;33291;46.222;26.460;2024-03-22T07:20:01;96750.13;;;6.81;89.80
47556;BME280;33291;46.222;26.460;2024-03-22T07:22:28;96748.63;;;6.90;88.39
47556;BME280;33291;46.222;26.460;2024-03-22T07:24:53;96745.06;;;7.04;87.95
47556;BME280;33291;46.222;26.460;2024-03-22T07:27:20;96745.13;;;7.15;85.80
47556;BME280;33291;46.222;26.460;2024-03-22T07:29:46;96744.44;;;7.24;85.75
47556;BME280;33291;46.222;26.460;2024-03-22T07:32:11;96739.06;;;7.39;84.66
47556;BME280;33291;46.222;26.460;2024-03-22T07:34:37;96743.78;;;7.45;85.43
47556;BME280;33291;46.222;26.460;2024-03-22T07:37:03;96733.19;;;7.48;79.46
47556;BME280;33291;46.222;26.460;2024-03-22T07:39:29;96734.88;;;7.60;84.21
47556;BME280;33291;46.222;26.460;2024-03-22T07:41:55;96736.78;;;7.70;84.13
47556;BME280;33291;46.222;26.460;2024-03-22T07:44:21;96721.72;;;7.75;78.92
47556;BME280;33291;46.222;26.460;2024-03-22T07:46:49;96718.88;;;7.89;77.85
47556;BME280;33291;46.222;26.460;2024-03-22T07:49:15;96726.09;;;8.19;73.55
47556;BME280;33291;46.222;26.460;2024-03-22T07:51:40;96718.69;;;8.49;72.12
47556;BME280;33291;46.222;26.460;2024-03-22T07:54:06;96731.75;;;8.70;68.99
47556;BME280;33291;46.222;26.460;2024-03-22T07:56:32;96727.81;;;8.87;67.49
47556;BME280;33291;46.222;26.460;2024-03-22T07:58:58;96698.28;;;8.88;65.51
47556;BME280;33291;46.222;26.460;2024-03-22T08:01:24;96727.00;;;9.19;64.96
47556;BME280;33291;46.222;26.460;2024-03-22T08:03:51;96720.19;;;9.28;63.60
47556;BME280;33291;46.222;26.460;2024-03-22T08:06:17;96717.19;;;9.43;61.65
47556;BME280;33291;46.222;26.460;2024-03-22T08:08:43;96707.72;;;9.42;60.92
47556;BME280;33291;46.222;26.460;2024-03-22T08:11:08;96720.44;;;9.57;61.36
47556;BME280;33291;46.222;26.460;2024-03-22T08:13:35;96718.84;;;9.66;60.00
47556;BME280;33291;46.222;26.460;2024-03-22T08:16:01;96715.59;;;9.73;60.19
47556;BME280;33291;46.222;26.460;2024-03-22T08:18:26;96715.78;;;9.82;58.68
47556;BME280;33291;46.222;26.460;2024-03-22T08:20:52;96712.66;;;9.88;59.11
47556;BME280;33291;46.222;26.460;2024-03-22T08:23:18;96708.34;;;9.98;58.09
47556;BME280;33291;46.222;26.460;2024-03-22T08:25:46;96696.72;;;10.02;58.50
47556;BME280;33291;46.222;26.460;2024-03-22T08:28:12;96699.91;;;10.16;58.05
47556;BME280;33291;46.222;26.460;2024-03-22T08:30:39;96707.63;;;10.27;57.71
47556;BME280;33291;46.222;26.460;2024-03-22T08:33:05;96705.53;;;10.42;56.95
47556;BME280;33291;46.222;26.460;2024-03-22T08:35:31;96709.09;;;10.51;57.43
47556;BME280;33291;46.222;26.460;2024-03-22T08:37:56;96699.53;;;10.61;56.33
47556;BME280;33291;46.222;26.460;2024-03-22T08:40:24;96702.03;;;10.72;56.92
47556;BME280;33291;46.222;26.460;2024-03-22T08:42:49;96696.53;;;10.85;55.79
47556;BME280;33291;46.222;26.460;2024-03-22T08:45:15;96704.78;;;11.00;55.18
47556;BME280;33291;46.222;26.460;2024-03-22T08:47:42;96700.13;;;11.13;54.55
47556;BME280;33291;46.222;26.460;2024-03-22T08:50:09;96692.56;;;11.20;54.21
47556;BME280;33291;46.222;26.460;2024-03-22T08:52:34;96689.69;;;11.33;53.75
47556;BME280;33291;46.222;26.460;2024-03-22T08:55:01;96683.22;;;11.37;53.45
47556;BME280;33291;46.222;26.460;2024-03-22T08:57:26;96690.22;;;11.56;53.14
47556;BME280;33291;46.222;26.460;2024-03-22T08:59:52;96689.09;;;11.68;52.80
47556;BME280;33291;46.222;26.460;2024-03-22T09:02:18;96680.31;;;11.69;52.36
47556;BME280;33291;46.222;26.460;2024-03-22T09:04:43;96678.34;;;11.81;51.59
47556;BME280;33291;46.222;26.460;2024-03-22T09:07:09;96681.34;;;11.86;51.44
47556;BME280;33291;46.222;26.460;2024-03-22T09:09:35;96674.19;;;11.88;50.34
47556;BME280;33291;46.222;26.460;2024-03-22T09:12:00;96681.63;;;11.93;51.24
47556;BME280;33291;46.222;26.460;2024-03-22T09:14:26;96676.38;;;12.03;51.49
47556;BME280;33291;46.222;26.460;2024-03-22T09:16:51;96679.94;;;12.02;50.93
47556;BME280;33291;46.222;26.460;2024-03-22T09:19:18;96667.13;;;12.08;51.10
47556;BME280;33291;46.222;26.460;2024-03-22T09:21:43;96672.56;;;12.25;50.44
47556;BME280;33291;46.222;26.460;2024-03-22T09:24:09;96666.09;;;12.29;50.13
47556;BME280;33291;46.222;26.460;2024-03-22T09:26:35;96667.78;;;12.20;49.79
47556;BME280;33291;46.222;26.460;2024-03-22T09:29:01;96665.44;;;12.17;50.22
47556;BME280;33291;46.222;26.460;2024-03-22T09:31:27;96660.44;;;12.06;50.15
47556;BME280;33291;46.222;26.460;2024-03-22T09:33:52;96663.19;;;11.95;50.48
47556;BME280;33291;46.222;26.460;2024-03-22T09:36:18;96671.56;;;11.88;51.50
47556;BME280;33291;46.222;26.460;2024-03-22T09:38:44;96673.09;;;11.91;49.58
47556;BME280;33291;46.222;26.460;2024-03-22T09:41:09;96666.78;;;11.84;48.55
47556;BME280;33291;46.222;26.460;2024-03-22T09:43:36;96657.75;;;11.78;49.44
47556;BME280;33291;46.222;26.460;2024-03-22T09:46:04;96662.91;;;11.98;49.18
47556;BME280;33291;46.222;26.460;2024-03-22T09:48:31;96660.50;;;12.24;49.31
47556;BME280;33291;46.222;26.460;2024-03-22T09:50:57;96648.44;;;12.41;48.26
47556;BME280;33291;46.222;26.460;2024-03-22T09:53:25;96653.94;;;12.38;48.32
47556;BME280;33291;46.222;26.460;2024-03-22T09:55:52;96649.00;;;12.35;47.86
47556;BME280;33291;46.222;26.460;2024-03-22T09:58:23;96651.28;;;12.20;48.46
47556;BME280;33291;46.222;26.460;2024-03-22T10:00:49;96651.59;;;12.17;49.19
47556;BME280;33291;46.222;26.460;2024-03-22T10:03:14;96648.53;;;11.94;48.99
47556;BME280;33291;46.222;26.460;2024-03-22T10:05:41;96657.16;;;11.94;49.02
47556;BME280;33291;46.222;26.460;2024-03-22T10:08:06;96643.59;;;11.81;49.07
47556;BME280;33291;46.222;26.460;2024-03-22T10:10:32;96647.56;;;11.85;49.27
47556;BME280;33291;46.222;26.460;2024-03-22T10:13:02;96646.47;;;11.87;47.90
47556;BME280;33291;46.222;26.460;2024-03-22T10:15:28;96649.22;;;11.86;48.27
47556;BME280;33291;46.222;26.460;2024-03-22T10:17:56;96630.91;;;11.96;48.74
47556;BME280;33291;46.222;26.460;2024-03-22T10:20:22;96645.69;;;12.15;49.41
47556;BME280;33291;46.222;26.460;2024-03-22T10:22:53;96647.31;;;12.16;48.75
47556;BME280;33291;46.222;26.460;2024-03-22T10:25:21;96630.69;;;12.17;47.02
47556;BME280;33291;46.222;26.460;2024-03-22T10:27:48;96623.47;;;12.29;47.47
47556;BME280;33291;46.222;26.460;2024-03-22T10:30:15;96627.16;;;12.54;45.32
47556;BME280;33291;46.222;26.460;2024-03-22T10:32:44;96629.03;;;12.61;45.64
47556;BME280;33291;46.222;26.460;2024-03-22T10:35:14;96627.03;;;12.73;44.00
47556;BME280;33291;46.222;26.460;2024-03-22T10:37:40;96616.19;;;12.50;42.88
47556;BME280;33291;46.222;26.460;2024-03-22T10:40:06;96616.34;;;12.49;43.93
47556;BME280;33291;46.222;26.460;2024-03-22T10:42:41;96616.22;;;12.68;45.19
47556;BME280;33291;46.222;26.460;2024-03-22T10:45:08;96609.34;;;12.85;45.62
47556;BME280;33291;46.222;26.460;2024-03-22T10:47:35;96616.63;;;13.00;45.21
47556;BME280;33291;46.222;26.460;2024-03-22T10:50:06;96603.16;;;12.86;43.67
47556;BME280;33291;46.222;26.460;2024-03-22T10:52:47;96605.91;;;12.67;44.12
47556;BME280;33291;46.222;26.460;2024-03-22T10:55:19;96599.56;;;12.51;44.69
47556;BME280;33291;46.222;26.460;2024-03-22T10:57:48;96592.97;;;12.47;46.12
47556;BME280;33291;46.222;26.460;2024-03-22T11:00:14;96599.00;;;12.48;45.17
47556;BME280;33291;46.222;26.460;2024-03-22T11:02:43;96594.16;;;12.35;43.98
47556;BME280;33291;46.222;26.460;2024-03-22T11:05:18;96586.78;;;12.48;46.14
47556;BME280;33291;46.222;26.460;2024-03-22T11:07:44;96597.06;;;12.68;45.47
47556;BME280;33291;46.222;26.460;2024-03-22T11:10:11;96581.19;;;12.61;44.14
47556;BME280;33291;46.222;26.460;2024-03-22T11:12:41;96581.94;;;12.71;43.64
47556;BME280;33291;46.222;26.460;2024-03-22T11:15:10;96573.66;;;12.76;44.58
47556;BME280;33291;46.222;26.460;2024-03-22T11:17:37;96574.59;;;12.93;44.59
47556;BME280;33291;46.222;26.460;2024-03-22T11:20:03;96575.50;;;12.84;46.58
47556;BME280;33291;46.222;26.460;2024-03-22T11:22:29;96573.72;;;12.66;47.57
47556;BME280;33291;46.222;26.460;2024-03-22T11:24:55;96574.03;;;12.45;47.91
47556;BME280;33291;46.222;26.460;2024-03-22T11:27:21;96563.84;;;12.24;49.38
47556;BME280;33291;46.222;26.460;2024-03-22T11:29:46;96560.34;;;12.15;48.68
47556;BME280;33291;46.222;26.460;2024-03-22T11:32:12;96561.44;;;12.13;49.33
47556;BME280;33291;46.222;26.460;2024-03-22T11:34:41;96560.66;;;12.02;49.24
47556;BME280;33291;46.222;26.460;2024-03-22T11:37:07;96562.47;;;12.02;49.67
47556;BME280;33291;46.222;26.460;2024-03-22T11:39:38;96554.59;;;12.12;49.19
47556;BME280;33291;46.222;26.460;2024-03-22T11:42:05;96546.31;;;12.16;47.47
47556;BME280;33291;46.222;26.460;2024-03-22T11:44:32;96548.91;;;12.34;47.28
47556;BME280;33291;46.222;26.460;2024-03-22T11:46:58;96549.38;;;12.30;46.59
47556;BME280;33291;46.222;26.460;2024-03-22T11:49:24;96524.75;;;12.14;47.31
47556;BME280;33291;46.222;26.460;2024-03-22T11:51:52;96543.69;;;12.34;47.36
47556;BME280;33291;46.222;26.460;2024-03-22T11:54:21;96537.59;;;12.43;47.04
47556;BME280;33291;46.222;26.460;2024-03-22T11:56:46;96530.94;;;12.49;46.82
47556;BME280;33291;46.222;26.460;2024-03-22T11:59:12;96532.00;;;12.56;46.87
47556;BME280;33291;46.222;26.460;2024-03-22T12:01:38;96524.75;;;12.50;47.83
47556;BME280;33291;46.222;26.460;2024-03-22T12:04:04;96516.41;;;12.47;46.86
47556;BME280;33291;46.222;26.460;2024-03-22T12:06:30;96520.19;;;12.52;46.88
47556;BME280;33291;46.222;26.460;2024-03-22T12:08:56;96511.38;;;12.53;46.99
47556;BME280;33291;46.222;26.460;2024-03-22T12:11:21;96509.13;;;12.58;46.63
47556;BME280;33291;46.222;26.460;2024-03-22T12:13:47;96513.91;;;12.63;46.60
47556;BME280;33291;46.222;26.460;2024-03-22T12:16:13;96514.91;;;12.62;46.19
47556;BME280;33291;46.222;26.460;2024-03-22T12:18:38;96506.91;;;12.64;46.58
47556;BME280;33291;46.222;26.460;2024-03-22T12:21:04;96506.06;;;12.63;47.11
47556;BME280;33291;46.222;26.460;2024-03-22T12:23:29;96504.13;;;12.65;46.48
47556;BME280;33291;46.222;26.460;2024-03-22T12:25:55;96501.06;;;12.70;46.56
47556;BME280;33291;46.222;26.460;2024-03-22T12:28:21;96496.34;;;12.73;46.35
47556;BME280;33291;46.222;26.460;2024-03-22T12:30:48;96496.94;;;12.85;45.92
47556;BME280;33291;46.222;26.460;2024-03-22T12:33:14;96493.31;;;13.04;46.54
47556;BME280;33291;46.222;26.460;2024-03-22T12:35:40;96484.41;;;13.23;46.32
47556;BME280;33291;46.222;26.460;2024-03-22T12:38:07;96482.56;;;13.42;45.21
47556;BME280;33291;46.222;26.460;2024-03-22T12:40:36;96480.66;;;13.26;42.92
47556;BME280;33291;46.222;26.460;2024-03-22T12:43:02;96475.00;;;13.04;43.21
47556;BME280;33291;46.222;26.460;2024-03-22T12:45:28;96473.69;;;13.08;43.71